Hauptseite
METAR-TAF:

METAR-TAF

Flughäfen :

Flughafen Castres-Mazamet

Castres, Frankreich

Breite: 43-33-25N, Länge: 2-17-21E, Höhe: 239 m

Beobachtung

Neuester Wetterbericht von vor 25 Minuten, um 01:00 UTC
Wind 24 kt aus Ost/Südost, Böen bis zu 34 kt
Temperatur 13°C
Luftfeuchtigkeit 77%
Luftdruck 1022 hPa
Sichtweite 10 km oder mehr
keine Wolken unter 1500 m und keine Kumulonimbus oder Gewitterwolken

METAR: LFCK 170100Z AUTO 12024G34KT CAVOK 13/09 Q1022

Zeit: 02:25 (01:25 UTC)

Prognose

Neuester Wetterbericht von vor 8 Stunden und 25 Minuten, um 17:00 UTC
Gültige Prognose vom 16 um 18 UTC bis 17 um 03 UTC
Wind 23 kt aus Ost/Südost, Böen bis zu 36 kt
Sichtweite 10 km oder mehr
keine Wolken unter 1500 m und keine Kumulonimbus oder Gewitterwolken
Übergehend zu
vom 16 um 21 UTC bis 16 um 23 UTC
Wind 16 kt aus Ost/Südost, Böen bis zu 28 kt

TAF: LFCK 161700Z 1618/1703 12023G36KT CAVOK BECMG 1621/1623 12016G28KT

Wetterbeobachtungen und Prognosen von mehr als 4000 Flughäfen (METAR und TAF Bericht).

Die verfügbaren Stationen werden durch gelbe und rote Markierungen auf der Karte dargestellt.

Führen Sie die Maus auf sie, um den Namen der Station zu sehen.

Darauf klicken, um die Beobachtung von Wetterbeobachtungen und Prognosen zu sehen.

Um die Karte zu ändern : klicken Sie auf den grünen Tasten mit einem schwarzen Kreuz Zum Vergrößern, auf den grünen Button mit einem Gedankenstrich zu verkleinern, oder auf die grünen Pfeile für benachbarte Karten.


METAR-TAF: